createdAt,value
2024-02-08T00:01:08.497Z,1.42
2024-02-08T00:04:10.696Z,1.20
2024-02-08T00:07:12.783Z,1.48
2024-02-08T00:10:14.901Z,1.20
2024-02-08T00:13:17.521Z,0.82
2024-02-08T00:16:19.540Z,1.40
2024-02-08T00:19:21.970Z,1.20
2024-02-08T00:22:24.188Z,1.23
2024-02-08T00:25:26.508Z,1.05
2024-02-08T00:28:30.050Z,1.45
2024-02-08T00:31:32.033Z,0.95
2024-02-08T00:34:34.245Z,1.10
2024-02-08T00:37:36.304Z,1.00
2024-02-08T00:40:38.422Z,1.10
2024-02-08T00:43:40.588Z,0.98
2024-02-08T00:46:42.734Z,0.90
2024-02-08T00:49:44.794Z,1.20
2024-02-08T00:52:46.908Z,1.00
2024-02-08T00:55:49.582Z,1.17
2024-02-08T01:01:53.556Z,1.05
2024-02-08T01:04:58.349Z,1.15
2024-02-08T01:08:01.831Z,1.80
2024-02-08T01:11:03.996Z,1.35
2024-02-08T01:14:06.280Z,1.08
2024-02-08T01:17:08.438Z,1.00
2024-02-08T01:20:11.391Z,1.17
2024-02-08T01:23:13.738Z,0.80
2024-02-08T01:26:15.952Z,1.38
2024-02-08T01:29:19.161Z,1.00
2024-02-08T01:32:21.883Z,1.17
2024-02-08T01:35:24.151Z,0.70
2024-02-08T01:38:26.422Z,1.05
2024-02-08T01:41:28.368Z,1.00
2024-02-08T01:44:30.493Z,1.48
2024-02-08T01:47:32.562Z,1.20
2024-02-08T01:50:36.644Z,1.08
2024-02-08T01:53:41.993Z,0.88
2024-02-08T01:56:44.702Z,0.90
2024-02-08T02:02:49.731Z,1.20
2024-02-08T02:08:56.595Z,1.13
2024-02-08T02:12:07.028Z,0.90
2024-02-08T02:15:09.360Z,1.10
2024-02-08T02:18:11.826Z,1.10
2024-02-08T02:21:13.966Z,1.00
2024-02-08T02:24:15.960Z,0.98
2024-02-08T02:27:20.567Z,1.10
2024-02-08T02:30:24.871Z,0.90
2024-02-08T02:33:27.264Z,1.23
2024-02-08T02:36:29.554Z,1.05
2024-02-08T02:42:33.988Z,1.60
2024-02-08T02:45:36.088Z,0.80
2024-02-08T02:48:38.232Z,0.80
2024-02-08T02:51:40.273Z,0.68
2024-02-08T02:54:42.642Z,2.75
2024-02-08T02:57:44.876Z,0.90
2024-02-08T03:00:46.872Z,1.08
2024-02-08T03:03:49.273Z,1.40
2024-02-08T03:06:53.883Z,0.85
2024-02-08T03:09:55.896Z,1.02
2024-02-08T03:12:57.832Z,1.02
2024-02-08T03:15:59.829Z,0.95
2024-02-08T03:19:01.889Z,1.65
2024-02-08T03:22:04.080Z,0.80
2024-02-08T03:25:07.909Z,1.00
2024-02-08T03:28:10.375Z,0.77
2024-02-08T03:31:12.822Z,0.73
2024-02-08T03:34:16.044Z,0.70
2024-02-08T03:37:18.359Z,0.95
2024-02-08T03:40:20.357Z,1.00
2024-02-08T03:43:22.401Z,1.27
2024-02-08T03:46:24.464Z,1.35
2024-02-08T03:49:26.695Z,1.15
2024-02-08T03:52:28.817Z,1.00
2024-02-08T03:55:31.124Z,0.70
2024-02-08T03:58:34.684Z,1.58
2024-02-08T04:01:36.767Z,1.45
2024-02-08T04:04:40.982Z,1.02
2024-02-08T04:07:43.105Z,1.35
2024-02-08T04:10:45.129Z,0.80
2024-02-08T04:13:47.148Z,0.70
2024-02-08T04:16:51.451Z,0.80
2024-02-08T04:19:53.881Z,0.80
2024-02-08T04:23:13.004Z,1.08
2024-02-08T04:26:15.215Z,0.70
2024-02-08T04:29:17.366Z,1.25
2024-02-08T04:32:19.665Z,0.82
2024-02-08T04:35:21.727Z,1.02
2024-02-08T04:38:23.792Z,0.82
2024-02-08T04:41:25.804Z,0.85
2024-02-08T04:44:27.737Z,0.90
2024-02-08T04:47:29.737Z,0.80
2024-02-08T04:50:31.694Z,0.80
2024-02-08T04:53:33.686Z,1.10
2024-02-08T04:56:35.637Z,1.20
2024-02-08T04:59:42.135Z,0.95
2024-02-08T05:02:44.113Z,0.80
2024-02-08T05:05:46.922Z,0.50
2024-02-08T05:08:50.531Z,0.93
2024-02-08T05:11:52.488Z,1.00
2024-02-08T05:14:54.481Z,0.70
2024-02-08T05:17:56.551Z,0.80
2024-02-08T05:20:58.720Z,0.95
2024-02-08T05:24:00.769Z,0.80
2024-02-08T05:27:02.924Z,0.80
2024-02-08T05:30:06.269Z,0.77
2024-02-08T05:33:08.373Z,1.00
2024-02-08T05:36:12.844Z,0.80
2024-02-08T05:39:18.317Z,1.10
2024-02-08T05:42:20.352Z,1.13
2024-02-08T05:45:22.403Z,1.23
2024-02-08T05:48:24.583Z,0.80
2024-02-08T05:51:26.680Z,1.35
2024-02-08T05:54:28.750Z,0.93
2024-02-08T05:57:30.836Z,1.20
2024-02-08T06:00:32.881Z,0.93
2024-02-08T06:03:35.437Z,1.00
2024-02-08T06:06:37.506Z,1.30
2024-02-08T06:09:42.703Z,1.27
2024-02-08T06:12:46.725Z,1.42
2024-02-08T06:18:56.908Z,0.90
2024-02-08T06:21:59.023Z,1.10
2024-02-08T06:25:01.126Z,1.10
2024-02-08T06:28:03.321Z,0.85
2024-02-08T06:31:08.900Z,0.63
2024-02-08T06:34:11.131Z,1.13
2024-02-08T06:37:14.606Z,1.50
2024-02-08T06:40:17.714Z,0.80
2024-02-08T06:43:19.827Z,0.93
2024-02-08T06:46:22.082Z,0.70
2024-02-08T06:49:24.217Z,1.15
2024-02-08T06:52:26.317Z,0.70
2024-02-08T06:55:28.355Z,0.88
2024-02-08T06:58:30.373Z,1.10
2024-02-08T07:01:32.437Z,1.00
2024-02-08T07:04:34.779Z,0.82
2024-02-08T07:07:37.996Z,1.13
2024-02-08T07:10:43.535Z,0.95
2024-02-08T07:13:45.788Z,1.15
2024-02-08T07:16:47.967Z,1.35
2024-02-08T07:19:50.044Z,1.17
2024-02-08T07:22:52.038Z,1.17
2024-02-08T07:25:56.337Z,0.93
2024-02-08T07:29:00.820Z,1.85
2024-02-08T07:32:02.879Z,1.02
2024-02-08T07:35:05.882Z,1.55
2024-02-08T07:38:07.912Z,1.00
2024-02-08T07:41:09.979Z,1.25
2024-02-08T07:44:11.927Z,1.00
2024-02-08T07:47:14.401Z,0.90
2024-02-08T07:50:16.446Z,0.80
2024-02-08T07:53:18.709Z,0.80
2024-02-08T07:56:21.200Z,0.82
2024-02-08T07:59:23.165Z,0.82
2024-02-08T08:02:25.926Z,0.80
2024-02-08T08:05:28.305Z,0.80
2024-02-08T08:08:30.528Z,1.10
2024-02-08T08:11:32.667Z,0.90
2024-02-08T08:14:34.857Z,1.08
2024-02-08T08:17:36.852Z,0.85
2024-02-08T08:20:39.357Z,0.60
2024-02-08T08:23:41.736Z,0.73
2024-02-08T08:26:44.307Z,0.70
2024-02-08T08:32:48.458Z,0.98
2024-02-08T08:35:50.638Z,0.52
2024-02-08T08:38:52.655Z,0.70
2024-02-08T08:41:54.687Z,0.50
2024-02-08T08:44:56.740Z,1.08
2024-02-08T08:47:58.828Z,0.82
2024-02-08T08:51:02.006Z,0.50
2024-02-08T08:54:06.597Z,1.10
2024-02-08T08:57:08.572Z,0.47
2024-02-08T09:00:10.970Z,0.50
2024-02-08T09:03:13.018Z,0.98
2024-02-08T09:06:15.022Z,0.43
2024-02-08T09:09:17.046Z,0.75
2024-02-08T09:12:19.006Z,1.02
2024-02-08T09:15:21.494Z,0.70
2024-02-08T09:18:24.194Z,0.45
2024-02-08T09:24:37.459Z,0.95
2024-02-08T09:27:45.375Z,0.85
2024-02-08T09:30:48.048Z,0.80
2024-02-08T09:33:50.241Z,0.75
2024-02-08T09:36:55.528Z,0.63
2024-02-08T09:39:57.606Z,0.60
2024-02-08T09:43:00.177Z,0.73
2024-02-08T09:46:05.235Z,0.50
2024-02-08T09:49:11.604Z,1.13
2024-02-08T09:52:14.772Z,1.08
2024-02-08T09:55:16.747Z,0.80
2024-02-08T09:58:19.320Z,0.80
2024-02-08T10:04:24.144Z,1.13
2024-02-08T10:07:26.160Z,0.85
2024-02-08T10:10:28.240Z,0.90
2024-02-08T10:13:34.522Z,0.90
2024-02-08T10:16:37.442Z,0.57
2024-02-08T10:19:39.523Z,0.82
2024-02-08T10:22:42.422Z,0.90
2024-02-08T10:25:44.912Z,1.00
2024-02-08T10:28:57.291Z,0.80
2024-02-08T10:31:59.299Z,1.10
2024-02-08T10:35:08.572Z,0.75
2024-02-08T10:38:20.045Z,1.00
2024-02-08T10:41:28.969Z,0.88
2024-02-08T10:44:31.819Z,0.88
2024-02-08T10:47:41.409Z,0.88
2024-02-08T10:50:46.384Z,0.52
2024-02-08T10:53:58.688Z,0.75
2024-02-08T10:57:01.802Z,1.02
2024-02-08T11:00:04.452Z,0.75
2024-02-08T11:03:07.260Z,0.70
2024-02-08T11:06:11.612Z,1.27
2024-02-08T11:09:13.778Z,1.15
2024-02-08T11:12:18.732Z,0.70
2024-02-08T11:15:24.962Z,1.95
2024-02-08T11:18:27.154Z,0.63
2024-02-08T11:21:29.581Z,0.70
2024-02-08T11:24:32.635Z,0.80
2024-02-08T11:27:34.615Z,0.60
2024-02-08T11:30:37.271Z,0.60
2024-02-08T11:33:39.360Z,0.55
2024-02-08T11:36:42.534Z,0.63
2024-02-08T11:39:44.884Z,0.60
2024-02-08T11:42:46.946Z,0.70
2024-02-08T11:45:53.141Z,0.52
2024-02-08T11:49:05.928Z,1.00
2024-02-08T12:03:16.529Z,0.77
2024-02-08T12:06:18.614Z,0.57
2024-02-08T12:09:21.017Z,0.82
2024-02-08T12:12:23.717Z,0.52
2024-02-08T12:18:30.969Z,1.27
2024-02-08T12:21:35.672Z,1.05
2024-02-08T12:24:38.729Z,0.50
2024-02-08T12:27:41.090Z,0.80
2024-02-08T12:30:43.380Z,0.90
2024-02-08T12:33:48.084Z,0.70
2024-02-08T12:36:50.470Z,0.95
2024-02-08T12:39:53.019Z,1.52
2024-02-08T12:45:57.359Z,1.08
2024-02-08T12:49:00.919Z,0.82
2024-02-08T12:52:04.876Z,0.60
2024-02-08T12:55:07.074Z,0.63
2024-02-08T12:58:09.401Z,1.27
2024-02-08T13:01:11.652Z,1.05
2024-02-08T13:04:17.820Z,1.23
2024-02-08T13:07:21.395Z,1.27
2024-02-08T13:10:29.763Z,0.93
2024-02-08T13:13:32.531Z,1.35
2024-02-08T13:16:34.674Z,0.73
2024-02-08T13:19:37.113Z,1.00
2024-02-08T13:22:40.434Z,0.70
2024-02-08T13:25:42.697Z,0.70
2024-02-08T13:31:47.207Z,1.02
2024-02-08T13:34:49.468Z,1.08
2024-02-08T13:37:53.343Z,1.10
2024-02-08T13:40:55.650Z,0.80
2024-02-08T13:43:57.855Z,0.75
2024-02-08T13:47:00.074Z,1.80
2024-02-08T13:50:02.392Z,0.77
2024-02-08T13:53:07.517Z,1.02
2024-02-08T13:56:12.249Z,0.68
2024-02-08T13:59:14.402Z,2.42
2024-02-08T14:02:17.915Z,0.98
2024-02-08T14:05:21.399Z,1.02
2024-02-08T14:08:23.622Z,0.85
2024-02-08T14:11:25.809Z,1.20
2024-02-08T14:14:28.439Z,0.93
2024-02-08T14:17:30.565Z,2.83
2024-02-08T14:20:32.718Z,1.25
2024-02-08T14:23:34.879Z,1.17
2024-02-08T14:26:37.018Z,0.90
2024-02-08T14:29:39.155Z,1.00
2024-02-08T14:32:41.452Z,0.98
2024-02-08T14:35:43.801Z,1.25
2024-02-08T14:38:45.892Z,0.90
2024-02-08T14:41:47.995Z,0.65
2024-02-08T14:44:50.091Z,1.45
2024-02-08T14:47:52.944Z,1.20
2024-02-08T14:50:59.017Z,1.23
2024-02-08T14:54:01.299Z,2.05
2024-02-08T14:57:03.506Z,3.05
2024-02-08T15:00:09.382Z,1.02
2024-02-08T15:03:12.034Z,0.65
2024-02-08T15:06:14.793Z,1.60
2024-02-08T15:12:19.071Z,2.00
2024-02-08T15:15:21.357Z,1.13
2024-02-08T15:18:23.546Z,0.98
2024-02-08T15:21:27.076Z,1.48
2024-02-08T15:24:29.346Z,0.85
2024-02-08T15:27:33.003Z,1.20
2024-02-08T15:30:35.209Z,0.80
2024-02-08T15:33:37.643Z,1.45
2024-02-08T15:36:40.060Z,1.10
2024-02-08T15:39:42.180Z,0.98
2024-02-08T15:42:44.499Z,1.75
2024-02-08T15:45:47.296Z,1.98
2024-02-08T15:48:49.466Z,1.60
2024-02-08T15:51:51.682Z,1.30
2024-02-08T15:54:54.692Z,1.23
2024-02-08T15:57:56.869Z,1.70
2024-02-08T16:00:59.069Z,1.40
2024-02-08T16:04:01.376Z,1.08
2024-02-08T16:07:03.849Z,1.25
2024-02-08T16:13:08.253Z,0.93
2024-02-08T16:16:10.435Z,1.10
2024-02-08T16:19:12.987Z,1.17
2024-02-08T16:22:15.198Z,1.88
2024-02-08T16:25:21.228Z,1.85
2024-02-08T16:28:24.500Z,1.38
2024-02-08T16:31:27.198Z,0.93
2024-02-08T16:34:29.436Z,1.83
2024-02-08T16:37:33.360Z,1.55
2024-02-08T16:40:40.044Z,1.05
2024-02-08T16:43:43.991Z,1.42
2024-02-08T16:46:46.907Z,1.27
2024-02-08T16:49:50.385Z,1.80
2024-02-08T16:52:57.025Z,2.13
2024-02-08T16:55:59.959Z,2.85
2024-02-08T16:59:02.820Z,1.95
2024-02-08T17:05:08.988Z,3.58
2024-02-08T17:08:12.549Z,2.55
2024-02-08T17:11:15.750Z,1.30
2024-02-08T17:14:21.676Z,1.08
2024-02-08T17:17:30.737Z,1.15
2024-02-08T17:20:40.303Z,1.25
2024-02-08T17:23:47.572Z,1.25
2024-02-08T17:26:55.140Z,2.38
2024-02-08T17:29:58.622Z,1.40
2024-02-08T17:33:01.474Z,1.23
2024-02-08T17:39:08.213Z,1.88
2024-02-08T17:42:12.703Z,0.80
2024-02-08T17:45:15.224Z,1.25
2024-02-08T17:51:20.437Z,1.42
2024-02-08T17:57:25.623Z,1.88
2024-02-08T18:00:27.953Z,2.35
2024-02-08T18:03:30.013Z,1.20
2024-02-08T18:06:32.387Z,1.80
2024-02-08T18:09:34.691Z,1.58
2024-02-08T18:12:36.840Z,1.50
2024-02-08T18:15:38.824Z,1.35
2024-02-08T18:18:41.771Z,2.50
2024-02-08T18:21:45.569Z,2.08
2024-02-08T18:24:47.690Z,1.42
2024-02-08T18:27:49.891Z,1.92
2024-02-08T18:30:53.167Z,1.38
2024-02-08T18:33:55.520Z,1.25
2024-02-08T18:40:07.982Z,1.73
2024-02-08T18:43:10.108Z,1.88
2024-02-08T18:46:12.401Z,1.67
2024-02-08T18:49:14.711Z,3.80
2024-02-08T18:52:17.459Z,2.15
2024-02-08T18:55:21.120Z,1.65
2024-02-08T18:58:23.488Z,2.00
2024-02-08T19:01:25.781Z,1.90
2024-02-08T19:04:28.433Z,1.35
2024-02-08T19:07:31.376Z,1.40
2024-02-08T19:13:35.707Z,2.63
2024-02-08T19:16:39.167Z,3.45
2024-02-08T19:19:42.062Z,1.90
2024-02-08T19:22:44.516Z,2.88
2024-02-08T19:25:47.296Z,2.92
2024-02-08T19:28:49.914Z,1.52
2024-02-08T19:34:56.210Z,3.97
2024-02-08T19:37:58.411Z,1.92
2024-02-08T19:41:00.446Z,1.75
2024-02-08T19:44:02.564Z,1.85
2024-02-08T19:47:09.404Z,2.13
2024-02-08T19:50:13.429Z,2.03
2024-02-08T19:53:16.618Z,2.30
2024-02-08T19:56:18.618Z,2.10
2024-02-08T19:59:20.673Z,2.90
2024-02-08T20:02:22.760Z,2.90
2024-02-08T20:05:25.191Z,1.55
2024-02-08T20:08:27.816Z,1.63
2024-02-08T20:11:29.834Z,2.53
2024-02-08T20:14:32.031Z,2.13
2024-02-08T20:17:34.189Z,2.25
2024-02-08T20:20:36.766Z,2.35
2024-02-08T20:23:38.832Z,2.83
2024-02-08T20:26:41.864Z,2.40
2024-02-08T20:29:43.937Z,2.88
2024-02-08T20:32:46.045Z,3.72
2024-02-08T20:35:48.179Z,2.88
2024-02-08T20:38:50.261Z,2.38
2024-02-08T20:41:52.225Z,2.25
2024-02-08T20:44:54.257Z,1.65
2024-02-08T20:47:56.403Z,3.58
2024-02-08T20:50:58.629Z,3.25
2024-02-08T20:54:00.906Z,1.85
2024-02-08T20:57:02.979Z,2.13
2024-02-08T21:00:05.591Z,1.50
2024-02-08T21:06:10.209Z,3.50
2024-02-08T21:09:12.779Z,4.15
2024-02-08T21:12:14.825Z,2.17
2024-02-08T21:15:17.274Z,3.80
2024-02-08T21:18:19.334Z,3.65
2024-02-08T21:21:21.392Z,2.70
2024-02-08T21:24:23.442Z,2.33
2024-02-08T21:27:25.409Z,3.65
2024-02-08T21:30:27.449Z,3.05
2024-02-08T21:33:32.565Z,3.00
2024-02-08T21:36:35.059Z,3.47
2024-02-08T21:39:46.770Z,1.88
2024-02-08T21:42:49.437Z,1.80
2024-02-08T21:45:52.270Z,2.42
2024-02-08T21:48:54.354Z,2.15
2024-02-08T21:51:56.487Z,2.00
2024-02-08T21:54:58.481Z,1.90
2024-02-08T21:58:01.344Z,1.95
2024-02-08T22:04:19.885Z,2.63
2024-02-08T22:07:22.140Z,4.43
2024-02-08T22:10:24.699Z,3.58
2024-02-08T22:13:26.910Z,2.40
2024-02-08T22:16:29.134Z,2.60
2024-02-08T22:19:31.695Z,2.55
2024-02-08T22:25:36.837Z,2.33
2024-02-08T22:28:40.933Z,2.35
2024-02-08T22:31:43.258Z,2.90
2024-02-08T22:34:45.413Z,2.55
2024-02-08T22:37:47.748Z,2.75
2024-02-08T22:40:49.862Z,1.80
2024-02-08T22:43:51.964Z,4.20
2024-02-08T22:46:54.999Z,3.60
2024-02-08T22:49:57.230Z,3.88
2024-02-08T22:52:59.721Z,1.77
2024-02-08T22:56:01.941Z,1.83
2024-02-08T22:59:07.349Z,1.92
2024-02-08T23:02:09.578Z,2.22
2024-02-08T23:05:11.858Z,3.97
2024-02-08T23:08:14.729Z,1.50
2024-02-08T23:11:17.197Z,1.42
2024-02-08T23:14:20.719Z,3.03
2024-02-08T23:17:23.069Z,2.35
2024-02-08T23:20:26.107Z,2.80
2024-02-08T23:23:28.412Z,2.35
2024-02-08T23:26:30.968Z,1.92
2024-02-08T23:29:33.144Z,3.22
2024-02-08T23:32:35.345Z,1.92
2024-02-08T23:35:37.592Z,2.50
2024-02-08T23:38:39.887Z,2.13
2024-02-08T23:41:42.056Z,1.60
2024-02-08T23:44:44.226Z,2.20
2024-02-08T23:47:46.515Z,1.60
2024-02-08T23:50:48.897Z,2.38
2024-02-08T23:53:51.744Z,1.88
2024-02-08T23:56:53.869Z,1.48
2024-02-08T23:59:56.649Z,1.50
